Time;durP1;ratioP1;P1;durP2;ratioP2;P2;SDS_P1;SDS_P2;PMS_P1;PMS_P2;Temp;Humidity;BMP_temperature;BMP_pressure;BME280_temperature;BME280_humidity;BME280_pressure;Samples;Min_cycle;Max_cycle;Signal;HPM_P1;HPM_P2
2022/08/21 00:01:59;;;;;;;7.55;3.47;;;;;;;22.27;45.35;100643.97;4161312;28;20040;-64
2022/08/21 00:04:05;;;;;;;9.15;3.17;;;;;;;22.25;45.67;100639.63;4163326;28;20415;-64
2022/08/21 00:06:08;;;;;;;9.25;3.28;;;;;;;22.19;46.42;100642.47;4162626;28;20042;-64
2022/08/21 00:08:18;;;;;;;6.68;2.72;;;;;;;22.14;46.18;100637.31;4146649;28;20078;-64
2022/08/21 00:10:22;;;;;;;8.32;3.17;;;;;;;22.11;46.43;100638.28;4163582;28;20037;-64
2022/08/21 00:12:25;;;;;;;7.05;3.03;;;;;;;22.02;46.60;100635.03;4163519;28;20577;-64
2022/08/21 00:14:28;;;;;;;7.95;3.08;;;;;;;21.99;46.77;100635.13;4162410;28;20041;-64
2022/08/21 00:16:34;;;;;;;5.82;3.22;;;;;;;21.98;47.01;100642.22;4163950;28;20041;-63
2022/08/21 00:18:36;;;;;;;6.78;3.05;;;;;;;21.93;46.58;100633.53;4154439;28;20048;-64
2022/08/21 00:20:42;;;;;;;7.10;2.78;;;;;;;21.91;46.79;100640.66;4162864;28;20044;-63
2022/08/21 00:22:45;;;;;;;5.38;2.88;;;;;;;21.88;46.84;100632.81;4159317;28;20044;-63
2022/08/21 00:24:50;;;;;;;6.95;3.30;;;;;;;21.81;46.85;100640.06;4162648;28;20034;-63
2022/08/21 00:26:53;;;;;;;6.65;3.35;;;;;;;21.76;46.60;100639.34;4163853;28;20037;-65
2022/08/21 00:28:56;;;;;;;8.35;3.10;;;;;;;21.75;46.43;100638.47;4157913;28;20128;-64
2022/08/21 00:31:03;;;;;;;9.00;3.35;;;;;;;21.75;46.23;100632.31;4158167;28;20046;-64
2022/08/21 00:33:08;;;;;;;7.30;3.17;;;;;;;21.69;46.19;100628.06;4161701;28;20045;-64
2022/08/21 00:35:14;;;;;;;7.88;3.13;;;;;;;21.69;46.05;100628.06;4163198;28;20042;-64
2022/08/21 00:37:17;;;;;;;9.45;3.28;;;;;;;21.56;46.29;100627.56;4154840;28;20124;-64
2022/08/21 00:39:20;;;;;;;10.30;3.30;;;;;;;21.51;46.24;100634.78;4163598;28;20510;-64
2022/08/21 00:41:24;;;;;;;6.38;2.70;;;;;;;21.50;46.30;100633.00;4158623;28;20041;-64
2022/08/21 00:43:42;;;;;;;8.60;3.67;;;;;;;21.45;46.46;100629.63;4163555;28;20029;-64
2022/08/21 00:45:53;;;;;;;11.02;3.20;;;;;;;21.46;46.46;100628.69;4163455;28;20038;-64
2022/08/21 00:47:57;;;;;;;7.20;2.72;;;;;;;21.42;46.60;100635.88;4162620;28;20091;-64
2022/08/21 00:49:59;;;;;;;7.32;3.25;;;;;;;21.44;46.55;100628.75;4158918;28;20030;-64
2022/08/21 00:52:04;;;;;;;7.55;3.28;;;;;;;21.46;46.80;100631.34;4163954;28;20069;-64
2022/08/21 00:54:10;;;;;;;6.72;3.15;;;;;;;21.44;46.61;100638.47;4156141;28;20235;-64
2022/08/21 00:56:22;;;;;;;10.15;3.35;;;;;;;21.44;46.71;100627.88;4159144;28;20049;-66
2022/08/21 00:58:28;;;;;;;9.10;3.20;;;;;;;21.46;46.38;100631.34;4157778;28;20128;-66
2022/08/21 01:00:34;;;;;;;8.35;3.60;;;;;;;21.44;46.47;100627.88;4162457;28;20048;-66
2022/08/21 01:02:37;;;;;;;6.28;2.90;;;;;;;21.42;46.53;100625.28;4161278;28;20040;-65
2022/08/21 01:04:41;;;;;;;6.35;2.83;;;;;;;21.39;47.69;100629.78;4161936;28;20124;-65
2022/08/21 01:06:44;;;;;;;5.13;2.45;;;;;;;21.41;47.80;100631.47;4144632;28;20065;-65
2022/08/21 01:08:47;;;;;;;9.90;3.45;;;;;;;21.37;47.73;100628.97;4163310;28;20577;-65
2022/08/21 01:10:52;;;;;;;9.00;3.67;;;;;;;21.31;47.66;100631.78;4159258;28;20402;-65
2022/08/21 01:13:01;;;;;;;7.25;3.20;;;;;;;21.31;47.54;100631.78;4154576;28;20030;-65
2022/08/21 01:15:07;;;;;;;6.85;3.50;;;;;;;21.27;47.79;100625.69;4161594;28;20045;-65
2022/08/21 01:17:13;;;;;;;8.18;3.15;;;;;;;21.21;48.06;100632.00;4153998;28;20542;-65
2022/08/21 01:19:18;;;;;;;10.35;3.45;;;;;;;21.13;48.68;100628.72;4135000;28;20440;-66
2022/08/21 01:21:25;;;;;;;7.13;2.97;;;;;;;21.08;48.90;100627.97;4162843;28;20399;-66
2022/08/21 01:23:30;;;;;;;8.60;2.95;;;;;;;21.07;48.46;100628.88;4161817;28;20061;-66
2022/08/21 01:25:35;;;;;;;7.07;3.25;;;;;;;21.04;48.53;100624.56;4161989;28;20045;-66
2022/08/21 01:27:38;;;;;;;8.13;3.85;;;;;;;21.04;48.17;100624.56;4154720;28;20096;-66
2022/08/21 01:29:46;;;;;;;8.07;3.03;;;;;;;21.01;47.62;100629.94;4160978;28;20025;-66
2022/08/21 01:31:49;;;;;;;6.32;3.30;;;;;;;20.92;47.81;100625.75;4158356;28;20041;-66
2022/08/21 01:33:53;;;;;;;7.87;3.47;;;;;;;20.87;48.05;100632.91;4160180;28;20057;-66
2022/08/21 01:35:56;;;;;;;6.10;3.33;;;;;;;20.81;48.60;100622.50;4138607;28;20554;-65
2022/08/21 01:38:00;;;;;;;7.72;3.05;;;;;;;20.80;48.71;100623.41;4163695;28;20041;-66
2022/08/21 01:40:04;;;;;;;11.25;3.15;;;;;;;20.70;49.09;100624.56;4152594;28;20038;-66
2022/08/21 01:42:08;;;;;;;8.10;3.30;;;;;;;20.71;48.95;100624.50;4160635;28;20539;-66
2022/08/21 01:44:11;;;;;;;7.47;2.90;;;;;;;20.69;48.62;100628.97;4162985;28;20124;-66
2022/08/21 01:46:14;;;;;;;7.63;3.47;;;;;;;20.71;48.77;100616.59;4163200;28;20047;-66
2022/08/21 01:48:17;;;;;;;8.23;3.17;;;;;;;20.73;48.63;100619.19;4153843;28;20048;-66
2022/08/21 01:50:21;;;;;;;5.53;3.30;;;;;;;20.73;49.12;100619.19;4161521;28;20037;-66
2022/08/21 01:52:24;;;;;;;6.97;2.92;;;;;;;20.67;49.37;100624.63;4162310;28;20041;-66
2022/08/21 01:54:28;;;;;;;8.15;3.13;;;;;;;20.69;49.27;100622.81;4155576;28;20042;-66
2022/08/21 01:56:42;;;;;;;6.55;3.20;;;;;;;20.72;49.14;100622.72;4162131;28;20041;-66
2022/08/21 01:58:48;;;;;;;8.77;3.03;;;;;;;20.68;49.03;100618.44;4162835;28;20041;-66
2022/08/21 02:00:53;;;;;;;10.50;4.00;;;;;;;20.64;48.94;100619.41;4156972;28;20037;-65
2022/08/21 02:02:56;;;;;;;6.30;3.00;;;;;;;20.60;49.08;100607.16;4144038;28;20065;-66
2022/08/21 02:04:59;;;;;;;9.32;3.10;;;;;;;20.56;49.11;100616.97;4162519;28;20486;-66
2022/08/21 02:07:03;;;;;;;8.90;3.83;;;;;;;20.52;49.26;100615.28;4165701;28;20099;-66
2022/08/21 02:09:11;;;;;;;7.68;3.45;;;;;;;20.48;49.95;100619.75;4162581;28;20056;-66
2022/08/21 02:11:15;;;;;;;;;;;;;;;20.28;50.51;100616.72;4155771;28;20042;-66
2022/08/21 02:13:19;;;;;;;6.63;3.10;;;;;;;20.35;50.59;100613.03;4160326;28;19959;-66
2022/08/21 02:15:23;;;;;;;8.45;3.45;;;;;;;20.36;50.59;100613.00;4157542;28;20538;-66
2022/08/21 02:17:26;;;;;;;6.35;3.40;;;;;;;20.32;50.63;100607.84;4163812;28;20107;-65
2022/08/21 02:19:29;;;;;;;6.57;3.60;;;;;;;20.27;51.13;100609.72;4164524;28;20132;-66
2022/08/21 02:21:41;;;;;;;6.22;2.70;;;;;;;20.29;51.16;100606.13;4163696;28;20124;-66
2022/08/21 02:23:45;;;;;;;6.37;3.37;;;;;;;20.30;51.55;100605.25;4164818;28;20038;-65
2022/08/21 02:25:48;;;;;;;8.82;3.85;;;;;;;20.23;51.65;100607.16;4164428;28;20300;-66
2022/08/21 02:27:53;;;;;;;8.43;4.75;;;;;;;20.28;52.15;100606.19;4161229;28;20037;-66
2022/08/21 02:29:58;;;;;;;6.88;3.60;;;;;;;20.24;52.62;100605.38;4164803;28;20060;-65
2022/08/21 02:32:00;;;;;;;7.65;3.45;;;;;;;20.19;52.77;100608.16;4165305;28;20120;-65
2022/08/21 02:34:05;;;;;;;7.18;3.70;;;;;;;20.20;52.79;100604.56;4166251;28;20399;-66
2022/08/21 02:36:10;;;;;;;6.60;3.78;;;;;;;20.21;52.58;100603.69;4161009;28;20042;-66
2022/08/21 02:38:15;;;;;;;9.40;3.78;;;;;;;20.18;52.78;100598.47;4158624;28;20045;-66
2022/08/21 02:40:20;;;;;;;10.07;4.03;;;;;;;20.21;52.60;100602.81;4163122;28;20033;-65
2022/08/21 02:42:22;;;;;;;10.98;5.28;;;;;;;20.20;52.89;100601.94;4165037;28;20115;-66
2022/08/21 02:44:27;;;;;;;9.80;4.18;;;;;;;20.18;52.84;100605.50;4165501;28;20037;-65
2022/08/21 02:46:36;;;;;;;8.93;4.40;;;;;;;20.14;53.73;100604.72;4164621;28;20053;-65
2022/08/21 02:48:39;;;;;;;11.88;4.45;;;;;;;20.10;53.69;100602.19;4163067;28;20069;-65
2022/08/21 02:50:44;;;;;;;8.13;4.00;;;;;;;20.05;54.69;100602.31;4160411;28;20087;-65
2022/08/21 02:52:48;;;;;;;8.23;3.97;;;;;;;20.01;55.02;100598.84;4161064;28;20041;-65
2022/08/21 02:54:56;;;;;;;7.45;3.72;;;;;;;19.98;55.60;100603.34;4165257;28;20034;-65
2022/08/21 02:56:59;;;;;;;7.43;3.72;;;;;;;19.91;55.20;100602.59;4159669;28;20045;-66
2022/08/21 02:59:02;;;;;;;8.10;4.07;;;;;;;19.81;55.56;100604.56;4165140;28;20399;-65
2022/08/21 03:01:09;;;;;;;8.70;4.63;;;;;;;19.80;56.20;100608.13;4164740;28;20487;-65
2022/08/21 03:03:13;;;;;;;10.20;4.30;;;;;;;19.74;56.58;100608.22;4163759;28;20065;-65
2022/08/21 03:05:16;;;;;;;8.43;4.32;;;;;;;19.71;56.89;100598.63;4156540;28;20112;-65
2022/08/21 03:07:19;;;;;;;8.57;4.35;;;;;;;19.70;57.05;100596.88;4156940;28;20104;-65
2022/08/21 03:09:22;;;;;;;8.73;4.10;;;;;;;19.71;57.64;100595.09;4164073;28;20041;-65
2022/08/21 03:11:26;;;;;;;7.32;3.75;;;;;;;19.71;57.78;100590.69;4162623;28;20039;-66
2022/08/21 03:13:29;;;;;;;8.73;4.50;;;;;;;19.73;57.92;100593.31;4163642;28;20044;-65
2022/08/21 03:15:32;;;;;;;7.70;4.18;;;;;;;19.64;57.91;100597.00;4163792;28;20041;-65
2022/08/21 03:17:38;;;;;;;;;;;;;;;19.48;58.39;100595.59;4164977;28;20128;-66
2022/08/21 03:19:41;;;;;;;7.30;4.07;;;;;;;19.48;57.99;100593.81;4164747;28;20279;-65
2022/08/21 03:21:43;;;;;;;6.95;3.97;;;;;;;19.59;57.26;100600.63;4163357;28;20474;-65
2022/08/21 03:23:46;;;;;;;7.32;3.85;;;;;;;19.60;57.32;100597.09;4164702;28;20495;-65
2022/08/21 03:25:50;;;;;;;6.97;4.00;;;;;;;19.54;57.83;100596.31;4163545;28;20573;-66
2022/08/21 03:27:55;;;;;;;6.97;4.43;;;;;;;19.51;57.59;100601.66;4162307;28;20100;-66
2022/08/21 03:30:03;;;;;;;8.32;3.58;;;;;;;19.51;57.58;100598.16;4162848;28;20073;-66
2022/08/21 03:32:08;;;;;;;7.95;4.05;;;;;;;19.55;57.74;100599.81;4164327;28;20040;-65
2022/08/21 03:34:13;;;;;;;10.90;3.83;;;;;;;19.52;57.72;100600.78;4164375;28;20060;-66
2022/08/21 03:36:16;;;;;;;10.20;4.57;;;;;;;19.49;57.77;100606.13;4160440;28;20041;-66
2022/08/21 03:38:19;;;;;;;9.90;4.93;;;;;;;19.46;57.75;100606.16;4163753;28;20052;-66
2022/08/21 03:40:28;;;;;;;9.48;4.40;;;;;;;19.51;57.80;100604.31;4164399;28;20141;-65
2022/08/21 03:42:31;;;;;;;6.68;3.90;;;;;;;19.44;58.10;100605.31;4163143;28;20129;-65
2022/08/21 03:44:34;;;;;;;7.97;4.28;;;;;;;19.47;58.24;100599.13;4162967;28;20040;-66
2022/08/21 03:46:37;;;;;;;9.13;4.28;;;;;;;19.46;57.49;100600.00;4163720;28;20053;-66
2022/08/21 03:48:40;;;;;;;10.57;4.40;;;;;;;19.44;57.19;100600.06;4164455;28;20487;-65
2022/08/21 03:50:46;;;;;;;10.55;4.43;;;;;;;19.43;57.24;100605.34;4163064;28;20037;-65
2022/08/21 03:52:49;;;;;;;8.98;4.13;;;;;;;19.36;57.47;100609.88;4162039;28;20164;-65
2022/08/21 03:54:52;;;;;;;6.88;4.18;;;;;;;19.35;57.44;100605.50;4161891;28;20550;-65
2022/08/21 03:56:56;;;;;;;8.27;4.43;;;;;;;19.34;58.13;100617.81;4160838;28;20044;-65
2022/08/21 03:58:58;;;;;;;9.30;4.65;;;;;;;19.27;58.50;100610.91;4163956;28;20037;-65
2022/08/21 04:01:04;;;;;;;9.70;3.88;;;;;;;19.23;58.78;100613.66;4161858;28;20475;-65
2022/08/21 04:03:07;;;;;;;9.30;4.03;;;;;;;19.23;59.21;100618.91;4162235;28;20042;-65
2022/08/21 04:05:10;;;;;;;6.80;4.05;;;;;;;19.22;59.47;100622.47;4177347;28;20052;-66
2022/08/21 04:07:15;;;;;;;9.10;4.47;;;;;;;19.17;59.98;100627.81;4145420;28;20112;-65
2022/08/21 04:09:18;;;;;;;8.18;4.35;;;;;;;19.19;59.81;100621.63;4156049;28;20697;-65
2022/08/21 04:11:21;;;;;;;7.85;4.75;;;;;;;19.26;60.26;100618.84;4162092;28;20037;-65
2022/08/21 04:13:23;;;;;;;7.28;4.18;;;;;;;19.27;60.09;100631.16;4158962;28;20037;-65
2022/08/21 04:15:28;;;;;;;12.80;5.10;;;;;;;19.17;60.33;100636.59;4163590;28;20129;-65
2022/08/21 04:17:31;;;;;;;9.00;4.53;;;;;;;19.13;60.58;100634.91;4163782;28;20064;-65
2022/08/21 04:19:34;;;;;;;9.32;4.57;;;;;;;19.12;60.28;100635.81;4164102;28;20132;-65
2022/08/21 04:21:38;;;;;;;8.77;4.78;;;;;;;19.09;59.77;100642.91;4162778;28;20446;-65
2022/08/21 04:23:42;;;;;;;;;;;;;;;18.79;60.06;100642.50;4161673;28;20187;-65
2022/08/21 04:25:45;;;;;;;10.05;5.18;;;;;;;18.86;59.79;100640.66;4162707;28;19975;-65
2022/08/21 04:27:48;;;;;;;7.55;4.43;;;;;;;18.93;59.80;100647.56;4160999;28;20140;-65
2022/08/21 04:29:51;;;;;;;8.43;4.60;;;;;;;19.02;59.83;100644.78;4163658;28;20049;-65
2022/08/21 04:31:54;;;;;;;8.27;4.63;;;;;;;19.01;59.73;100646.56;4162343;28;20037;-65
2022/08/21 04:33:57;;;;;;;7.53;4.45;;;;;;;18.97;59.56;100646.63;4163454;28;20459;-65
2022/08/21 04:36:02;;;;;;;8.60;4.82;;;;;;;18.96;59.80;100642.25;4162449;28;20080;-65
2022/08/21 04:38:14;;;;;;;10.88;4.65;;;;;;;18.99;59.83;100642.19;4163468;28;20040;-66
2022/08/21 04:40:20;;;;;;;7.78;4.25;;;;;;;18.92;59.85;100646.69;4161481;28;20051;-66
2022/08/21 04:42:23;;;;;;;8.20;4.30;;;;;;;18.88;60.37;100646.78;4163265;28;20041;-66
2022/08/21 04:44:26;;;;;;;9.30;4.90;;;;;;;18.79;60.52;100660.94;4163415;28;20049;-66
2022/08/21 04:46:29;;;;;;;11.07;5.00;;;;;;;18.82;60.08;100663.50;4163350;28;20093;-66
2022/08/21 04:48:33;;;;;;;9.77;5.43;;;;;;;18.80;60.28;100667.94;4160090;28;20052;-66
2022/08/21 04:50:41;;;;;;;6.33;4.33;;;;;;;18.79;60.72;100669.72;4162695;28;20060;-66
2022/08/21 04:52:47;;;;;;;10.10;4.70;;;;;;;18.80;60.74;100663.53;4163230;28;20296;-66
2022/08/21 04:54:52;;;;;;;8.98;4.80;;;;;;;18.80;61.12;100658.28;4162267;28;20125;-65
2022/08/21 04:57:03;;;;;;;7.00;4.20;;;;;;;18.86;60.86;100657.34;4161210;28;20037;-65
2022/08/21 04:59:11;;;;;;;8.60;4.63;;;;;;;18.88;61.34;100660.84;4161697;28;20041;-65
2022/08/21 05:01:19;;;;;;;6.38;4.30;;;;;;;18.88;61.27;100659.94;4162899;28;20270;-65
2022/08/21 05:03:23;;;;;;;9.93;4.63;;;;;;;18.85;61.80;100671.38;4171136;28;20103;-66
2022/08/21 05:05:27;;;;;;;8.52;4.40;;;;;;;18.88;61.51;100662.56;4163059;28;20514;-66
2022/08/21 05:07:31;;;;;;;;;;;;;;;18.75;61.86;100660.13;4162621;28;20045;-66
2022/08/21 05:09:45;;;;;;;8.88;4.72;;;;;;;18.80;61.62;100663.53;4161466;28;19943;-66
2022/08/21 05:11:48;;;;;;;6.50;4.28;;;;;;;18.83;61.38;100663.50;4162763;28;20037;-65
2022/08/21 05:13:52;;;;;;;11.90;4.72;;;;;;;18.89;61.48;100662.56;4160253;28;20128;-65
2022/08/21 05:15:59;;;;;;;10.35;5.28;;;;;;;18.88;61.25;100671.38;4163249;28;20037;-66
2022/08/21 05:18:02;;;;;;;8.82;4.35;;;;;;;18.96;61.56;100665.97;4161894;28;20049;-65
2022/08/21 05:20:05;;;;;;;6.97;4.85;;;;;;;18.93;62.13;100660.75;4161771;28;20499;-65
2022/08/21 05:22:09;;;;;;;8.38;5.00;;;;;;;18.97;61.65;100665.06;4162006;28;20037;-66
2022/08/21 05:24:12;;;;;;;9.02;4.50;;;;;;;19.01;61.51;100672.00;4161123;28;20037;-66
2022/08/21 05:26:15;;;;;;;6.97;4.53;;;;;;;19.04;62.06;100673.72;4161956;28;20132;-66
2022/08/21 05:28:20;;;;;;;9.70;5.05;;;;;;;19.09;61.88;100674.53;4161192;28;20394;-65
2022/08/21 05:30:24;;;;;;;8.40;4.05;;;;;;;19.09;61.76;100679.81;4178070;28;20059;-65
2022/08/21 05:32:28;;;;;;;8.90;4.60;;;;;;;19.12;61.94;100680.59;4162332;28;20041;-65
2022/08/21 05:34:31;;;;;;;12.57;5.10;;;;;;;19.17;61.59;100678.78;4163002;28;20068;-65
2022/08/21 05:36:34;;;;;;;7.85;4.72;;;;;;;19.27;61.08;100679.44;4163065;28;20042;-65
2022/08/21 05:38:37;;;;;;;8.10;5.10;;;;;;;19.31;60.68;100681.13;4158896;28;20033;-65
2022/08/21 05:40:40;;;;;;;10.25;4.68;;;;;;;19.36;60.03;100681.03;4161957;28;20041;-65
2022/08/21 05:42:43;;;;;;;10.55;5.20;;;;;;;19.40;60.28;100680.09;4162794;28;20041;-65
2022/08/21 05:44:56;;;;;;;8.38;4.70;;;;;;;19.45;59.73;100678.25;4162240;28;20042;-65
2022/08/21 05:47:05;;;;;;;7.45;4.60;;;;;;;19.48;59.38;100680.84;4161681;28;20037;-65
2022/08/21 05:49:08;;;;;;;9.05;4.93;;;;;;;19.48;59.07;100680.84;4155725;28;20042;-65
2022/08/21 05:51:15;;;;;;;9.20;5.05;;;;;;;19.52;58.92;100684.25;4163965;28;20135;-65
2022/08/21 05:53:21;;;;;;;9.85;4.68;;;;;;;19.57;58.03;100676.28;4165042;28;20132;-65
2022/08/21 05:55:24;;;;;;;9.30;4.30;;;;;;;19.58;58.02;100670.97;4165005;28;20041;-65
2022/08/21 05:57:27;;;;;;;7.43;4.60;;;;;;;19.65;57.54;100677.00;4165004;28;20041;-65
2022/08/21 05:59:30;;;;;;;7.15;4.38;;;;;;;19.69;57.26;100682.16;4162902;28;20043;-65
2022/08/21 06:01:33;;;;;;;11.15;5.70;;;;;;;19.70;56.88;100672.50;4165761;28;20041;-65
2022/08/21 06:03:40;;;;;;;10.70;5.07;;;;;;;19.74;57.25;100678.56;4163667;28;20049;-65
2022/08/21 06:05:42;;;;;;;10.23;4.82;;;;;;;19.71;57.18;100679.50;4165611;28;20038;-66
2022/08/21 06:07:45;;;;;;;11.20;4.82;;;;;;;19.73;57.16;100669.81;4150720;28;20403;-65
2022/08/21 06:09:48;;;;;;;11.43;4.80;;;;;;;19.77;56.41;100679.41;4157556;28;20120;-65
2022/08/21 06:11:51;;;;;;;7.78;4.72;;;;;;;19.83;56.18;100681.94;4163398;28;20040;-65
2022/08/21 06:13:54;;;;;;;8.75;4.68;;;;;;;19.88;55.72;100676.56;4164542;28;20152;-66
2022/08/21 06:16:07;;;;;;;11.40;4.70;;;;;;;19.93;55.21;100685.25;4165515;28;20039;-64
2022/08/21 06:18:11;;;;;;;9.77;4.57;;;;;;;19.94;55.74;100680.84;4166777;28;20107;-65
2022/08/21 06:20:15;;;;;;;7.30;4.10;;;;;;;19.98;55.27;100682.53;4163719;28;20045;-65
2022/08/21 06:22:18;;;;;;;;;;;;;;;19.89;55.10;100688.84;4143080;28;20042;-65
2022/08/21 06:24:21;;;;;;;11.45;5.10;;;;;;;19.98;55.23;100683.38;4159959;28;20090;-66
2022/08/21 06:26:24;;;;;;;8.30;4.20;;;;;;;20.10;54.57;100682.25;4158212;28;20037;-66
2022/08/21 06:28:27;;;;;;;11.60;4.30;;;;;;;20.15;54.07;100684.78;4164643;28;20510;-65
2022/08/21 06:30:30;;;;;;;8.38;4.07;;;;;;;20.19;54.66;100689.97;4160892;28;20033;-65
2022/08/21 06:32:33;;;;;;;8.85;3.90;;;;;;;20.22;53.75;100687.28;4164259;28;20049;-65
2022/08/21 06:34:37;;;;;;;8.73;3.67;;;;;;;20.25;53.96;100688.94;4162210;28;20755;-66
2022/08/21 06:36:42;;;;;;;9.98;4.70;;;;;;;20.31;53.39;100693.22;4163982;28;20041;-65
2022/08/21 06:38:45;;;;;;;11.52;4.10;;;;;;;20.34;52.85;100690.50;4164346;28;20048;-65
2022/08/21 06:40:53;;;;;;;9.88;4.40;;;;;;;20.33;52.59;100681.72;4165772;28;20079;-65
2022/08/21 06:42:57;;;;;;;7.63;3.47;;;;;;;20.40;52.33;100693.03;4160159;28;20044;-66
2022/08/21 06:45:00;;;;;;;8.88;3.67;;;;;;;20.41;52.58;100692.13;4164299;28;20248;-66
2022/08/21 06:47:03;;;;;;;6.93;4.00;;;;;;;20.42;52.81;100688.56;4156620;28;20683;-65
2022/08/21 06:49:06;;;;;;;8.20;3.97;;;;;;;20.47;53.06;100697.28;4166138;28;20129;-65
2022/08/21 06:51:17;;;;;;;12.63;5.20;;;;;;;20.53;52.33;100686.56;4160561;28;20053;-65
2022/08/21 06:53:21;;;;;;;9.35;4.28;;;;;;;20.58;52.81;100684.66;4161393;28;20045;-65
2022/08/21 06:55:24;;;;;;;9.93;5.15;;;;;;;20.51;52.96;100688.34;4164329;28;20037;-65
2022/08/21 06:57:31;;;;;;;10.13;4.28;;;;;;;20.55;53.43;100695.31;4164973;28;20045;-65
2022/08/21 06:59:33;;;;;;;9.02;4.10;;;;;;;20.67;52.95;100693.31;4156349;28;20471;-65
2022/08/21 07:01:37;;;;;;;11.48;4.93;;;;;;;20.80;52.47;100691.25;4160665;28;20043;-65
2022/08/21 07:03:41;;;;;;;10.75;4.50;;;;;;;20.84;52.74;100687.63;4163943;28;20453;-64
2022/08/21 07:05:44;;;;;;;9.85;4.68;;;;;;;20.88;52.70;100695.44;4162119;28;20084;-64
2022/08/21 07:07:48;;;;;;;10.73;4.03;;;;;;;20.96;52.46;100694.38;4164447;28;20025;-64
2022/08/21 07:09:52;;;;;;;6.95;3.70;;;;;;;20.96;52.57;100689.09;4164770;28;20037;-65
2022/08/21 07:11:57;;;;;;;8.07;4.00;;;;;;;20.98;52.47;100685.50;4157430;28;20037;-65
2022/08/21 07:14:00;;;;;;;8.63;4.10;;;;;;;21.02;52.18;100683.66;4162169;28;20041;-64
2022/08/21 07:16:03;;;;;;;8.25;3.60;;;;;;;21.08;52.10;100678.19;4163285;28;20459;-64
2022/08/21 07:18:06;;;;;;;6.33;3.73;;;;;;;21.18;51.65;100681.47;4157377;28;20037;-65
2022/08/21 07:20:10;;;;;;;8.15;4.20;;;;;;;21.20;50.92;100679.66;4160713;28;20037;-65
2022/08/21 07:22:18;;;;;;;10.25;4.05;;;;;;;21.20;50.94;100677.91;4165206;28;20049;-64
2022/08/21 07:24:20;;;;;;;7.90;3.85;;;;;;;21.27;50.65;100676.81;4181912;28;20041;-64
2022/08/21 07:26:25;;;;;;;9.02;3.63;;;;;;;21.36;50.83;100677.47;4160850;28;20064;-64
2022/08/21 07:28:29;;;;;;;6.68;3.55;;;;;;;21.37;51.06;100673.94;4157903;28;20043;-64
2022/08/21 07:30:32;;;;;;;8.90;3.70;;;;;;;21.44;50.92;100670.19;4178965;28;20033;-65
2022/08/21 07:32:35;;;;;;;8.63;4.20;;;;;;;21.46;50.72;100663.06;4161403;28;20045;-64
2022/08/21 07:34:38;;;;;;;9.25;3.60;;;;;;;21.51;50.25;100670.91;4142244;28;20045;-65
2022/08/21 07:36:40;;;;;;;8.85;5.15;;;;;;;21.57;50.11;100670.75;4161613;28;20056;-64
2022/08/21 07:38:44;;;;;;;7.57;4.00;;;;;;;21.63;49.55;100669.72;4161952;28;20125;-65
2022/08/21 07:40:49;;;;;;;8.60;4.05;;;;;;;21.64;49.58;100674.97;4164299;28;20060;-65
2022/08/21 07:42:54;;;;;;;8.38;3.67;;;;;;;21.74;49.24;100673.81;4162494;28;20041;-64
2022/08/21 07:44:57;;;;;;;12.98;6.53;;;;;;;22.08;47.03;100670.16;4161484;28;20044;-64
2022/08/21 07:47:00;;;;;;;14.02;5.75;;;;;;;22.10;46.57;100670.09;4161345;28;20037;-64
2022/08/21 07:49:03;;;;;;;11.32;6.07;;;;;;;22.02;46.87;100666.81;4162397;28;20049;-65
2022/08/21 07:51:09;;;;;;;7.95;4.47;;;;;;;21.92;48.47;100669.75;4163519;28;20091;-64
2022/08/21 07:53:12;;;;;;;7.18;3.20;;;;;;;22.03;49.25;100671.19;4163785;28;20092;-63
2022/08/21 07:55:17;;;;;;;6.53;3.50;;;;;;;22.27;49.28;100665.16;4162569;28;20179;-65
2022/08/21 07:57:20;;;;;;;10.23;3.55;;;;;;;22.53;48.75;100668.81;4164498;28;20043;-63
2022/08/21 07:59:25;;;;;;;11.23;4.82;;;;;;;22.66;48.05;100664.84;4160049;28;20040;-63
2022/08/21 08:01:27;;;;;;;9.13;4.75;;;;;;;22.66;47.42;100663.94;4157455;28;20483;-62
2022/08/21 08:03:30;;;;;;;12.02;5.00;;;;;;;22.71;46.93;100667.31;4162491;28;20037;-62
2022/08/21 08:05:36;;;;;;;10.00;4.43;;;;;;;22.83;46.45;100674.84;4163081;28;20483;-62
2022/08/21 08:07:40;;;;;;;10.38;4.50;;;;;;;22.84;46.80;100667.78;4159774;28;20041;-62
2022/08/21 08:09:43;;;;;;;9.05;4.13;;;;;;;22.97;46.83;100668.25;4161332;28;20038;-63
2022/08/21 08:11:46;;;;;;;11.00;4.90;;;;;;;22.99;46.06;100671.69;4151519;28;20071;-63
2022/08/21 08:13:52;;;;;;;10.18;4.22;;;;;;;22.93;46.81;100674.56;4146450;28;20072;-62
2022/08/21 08:15:56;;;;;;;13.88;5.53;;;;;;;23.08;46.42;100665.22;4160580;28;20034;-63
2022/08/21 08:17:59;;;;;;;10.93;4.97;;;;;;;23.06;46.00;100662.63;4162419;28;20092;-63
2022/08/21 08:20:02;;;;;;;12.52;5.47;;;;;;;23.14;46.02;100662.38;4164143;28;20042;-63
2022/08/21 08:22:15;;;;;;;11.13;4.47;;;;;;;23.13;46.33;100658.88;4162333;28;20045;-62
2022/08/21 08:24:17;;;;;;;10.70;4.25;;;;;;;23.20;46.25;100656.84;4163788;28;20049;-63
2022/08/21 08:26:21;;;;;;;10.35;4.07;;;;;;;23.30;46.40;100660.06;4155967;28;20399;-62
2022/08/21 08:28:25;;;;;;;13.32;6.00;;;;;;;23.44;44.99;100652.47;4163351;28;20048;-62
2022/08/21 08:30:28;;;;;;;11.43;4.90;;;;;;;23.30;45.69;100660.06;4160132;28;20029;-62
2022/08/21 08:32:36;;;;;;;10.95;4.78;;;;;;;23.38;45.19;100643.84;4163128;28;20067;-63
2022/08/21 08:34:39;;;;;;;;;;;;;;;23.29;45.60;100650.34;4164256;28;20033;-62
2022/08/21 08:36:42;;;;;;;11.15;5.97;;;;;;;23.32;45.12;100642.31;4162487;28;19929;-62
2022/08/21 08:38:45;;;;;;;11.60;5.32;;;;;;;23.33;45.24;100642.25;4144964;28;20038;-62
2022/08/21 08:40:54;;;;;;;10.50;5.43;;;;;;;23.43;44.89;100636.59;4161556;28;20139;-62
2022/08/21 08:42:57;;;;;;;12.50;5.82;;;;;;;23.33;44.99;100630.75;4161772;28;20048;-62
2022/08/21 08:45:02;;;;;;;10.95;5.05;;;;;;;23.38;45.02;100630.59;4162818;28;20489;-62
2022/08/21 08:47:06;;;;;;;10.82;4.97;;;;;;;23.51;44.85;100634.53;4162173;28;20491;-62
2022/08/21 08:49:16;;;;;;;13.10;6.13;;;;;;;23.39;44.64;100627.88;4159314;28;20053;-63
2022/08/21 08:51:27;;;;;;;9.82;4.45;;;;;;;23.39;45.10;100622.56;4162179;28;20041;-63
2022/08/21 08:53:34;;;;;;;8.13;5.00;;;;;;;23.47;44.64;100619.66;4163306;28;20049;-63
2022/08/21 08:55:40;;;;;;;9.50;4.22;;;;;;;23.51;44.90;100618.63;4164481;28;20128;-63
2022/08/21 08:57:46;;;;;;;9.40;4.90;;;;;;;23.60;45.00;100625.38;4162424;28;20041;-63
2022/08/21 08:59:54;;;;;;;9.75;4.53;;;;;;;23.69;44.71;100619.72;4172961;28;20565;-63
2022/08/21 09:01:57;;;;;;;12.60;5.97;;;;;;;23.80;44.40;100613.97;4150355;28;20042;-65
2022/08/21 09:04:01;;;;;;;10.60;4.60;;;;;;;23.88;44.37;100617.25;4162321;28;20033;-64
2022/08/21 09:06:14;;;;;;;10.70;4.43;;;;;;;23.98;44.42;100613.31;4164060;28;20120;-63
2022/08/21 09:08:37;;;;;;;10.52;5.38;;;;;;;24.03;44.27;100613.13;4162245;28;20037;-63
2022/08/21 09:10:56;;;;;;;10.52;5.28;;;;;;;24.16;43.96;100610.84;4146300;28;20037;-63
2022/08/21 09:13:09;;;;;;;10.10;4.90;;;;;;;24.14;43.73;100613.56;4162302;28;20044;-64
2022/08/21 09:15:24;;;;;;;13.02;5.63;;;;;;;24.16;43.99;100605.53;4159947;28;20099;-64
2022/08/21 09:17:38;;;;;;;9.93;5.30;;;;;;;24.19;43.91;100600.09;4161508;28;20229;-64
2022/08/21 09:19:59;;;;;;;12.02;5.15;;;;;;;24.20;44.01;100600.03;4161731;28;20041;-65
2022/08/21 09:22:15;;;;;;;11.45;5.22;;;;;;;24.36;43.69;100602.94;4161285;28;20047;-72
2022/08/21 09:24:31;;;;;;;9.30;4.75;;;;;;;24.54;43.50;100597.78;4154810;28;20068;-68
2022/08/21 09:26:48;;;;;;;6.47;4.15;;;;;;;24.57;43.56;100593.22;4178267;28;20048;-64
2022/08/21 09:28:54;;;;;;;8.60;4.47;;;;;;;24.68;43.35;100594.59;4177201;28;20029;-65
2022/08/21 09:31:02;;;;;;;9.85;4.40;;;;;;;24.80;43.12;100594.06;4155217;28;20041;-68
2022/08/21 09:33:05;;;;;;;8.32;5.22;;;;;;;24.89;42.67;100588.31;4160508;28;20048;-66
2022/08/21 09:35:11;;;;;;;7.65;5.13;;;;;;;24.94;42.74;100589.91;4163899;28;20505;-69
2022/08/21 09:37:19;;;;;;;9.52;4.60;;;;;;;25.00;42.49;100590.53;4161772;28;20052;-67
2022/08/21 09:39:26;;;;;;;6.32;3.70;;;;;;;25.13;42.59;100587.31;4159038;28;20669;-63
2022/08/21 09:41:32;;;;;;;7.70;4.05;;;;;;;25.14;41.41;100583.72;4158430;28;20426;-64